createdAt,value
2023-02-02T00:02:01.693Z,64992.06
2023-02-02T00:07:31.403Z,64992.06
2023-02-02T00:13:00.332Z,64992.06
2023-02-02T00:18:29.147Z,64992.06
2023-02-02T00:24:00.107Z,64992.06
2023-02-02T00:29:31.269Z,64992.06
2023-02-02T00:34:59.859Z,64992.06
2023-02-02T00:40:30.567Z,64992.06
2023-02-02T00:45:59.142Z,64992.06
2023-02-02T00:51:28.284Z,64992.06
2023-02-02T00:56:58.207Z,64992.06
2023-02-02T04:53:56.182Z,100158.16
2023-02-02T04:59:21.172Z,100157.72
2023-02-02T05:04:49.254Z,100159.56
2023-02-02T05:10:20.191Z,100164.47
2023-02-02T05:15:43.773Z,100169.84
2023-02-02T05:21:12.653Z,100183.34
2023-02-02T05:26:37.819Z,100175.19
2023-02-02T05:32:03.036Z,100185.66
2023-02-02T05:37:28.490Z,100184.56
2023-02-02T05:42:55.626Z,100190.06
2023-02-02T05:48:18.977Z,100193.75
2023-02-02T05:53:44.996Z,100192.06
2023-02-02T05:59:09.977Z,100204.09
2023-02-02T06:04:33.804Z,100204.09
2023-02-02T06:09:57.370Z,64992.06
2023-02-02T06:15:22.616Z,64992.06
2023-02-02T06:20:47.174Z,64992.06
2023-02-02T06:26:10.887Z,64992.06
2023-02-02T06:31:37.039Z,64992.06
2023-02-02T06:37:00.973Z,64992.06
2023-02-02T06:42:27.853Z,64992.06
2023-02-02T06:48:03.564Z,64992.06
2023-02-02T06:53:28.029Z,64992.06
2023-02-02T06:58:52.088Z,64992.06
2023-02-02T07:04:20.197Z,64992.06
2023-02-02T07:09:44.222Z,64992.06
2023-02-02T07:15:12.046Z,64992.06
2023-02-02T07:20:40.165Z,64992.06
2023-02-02T07:26:10.924Z,64992.06
2023-02-02T07:32:08.839Z,64992.06
2023-02-02T07:37:40.101Z,64992.06
2023-02-02T07:43:10.217Z,64992.06
2023-02-02T07:48:39.673Z,64992.06
2023-02-02T07:54:10.595Z,64992.06
2023-02-02T07:59:39.323Z,64992.06
2023-02-02T08:05:09.093Z,64992.06
2023-02-02T08:10:39.477Z,64992.06
2023-02-02T08:16:09.514Z,64992.06
2023-02-02T08:21:38.480Z,64992.06
2023-02-02T08:27:09.864Z,64992.06
2023-02-02T08:32:38.156Z,64992.06
2023-02-02T08:38:07.671Z,64992.06
2023-02-02T08:43:38.021Z,64992.06
2023-02-02T08:49:07.809Z,64992.06
2023-02-02T08:54:36.429Z,64992.06
2023-02-02T09:00:07.784Z,64992.06
2023-02-02T09:05:38.550Z,64992.06
2023-02-02T09:11:08.465Z,64992.06
2023-02-02T09:16:39.337Z,64992.06
2023-02-02T09:22:08.609Z,64992.06
2023-02-02T09:27:39.566Z,64992.06
2023-02-02T09:33:09.749Z,64992.06
2023-02-02T09:38:39.447Z,64992.06
2023-02-02T09:44:12.895Z,64992.06
2023-02-02T09:49:51.134Z,64992.06
2023-02-02T09:55:30.223Z,64992.06
2023-02-02T10:01:05.816Z,64992.06
2023-02-02T10:06:39.765Z,64992.06
2023-02-02T10:12:21.042Z,64992.06
2023-02-02T10:17:55.637Z,64992.06
2023-02-02T10:23:29.169Z,64992.06
2023-02-02T10:29:09.074Z,64992.06
2023-02-02T10:34:42.225Z,64992.06
2023-02-02T10:40:18.183Z,64992.06
2023-02-02T10:45:45.404Z,64992.06
2023-02-02T10:51:19.014Z,64992.06
2023-02-02T10:56:53.995Z,64992.06
2023-02-02T11:02:20.997Z,64992.06
2023-02-02T11:07:46.001Z,64992.06
2023-02-02T11:13:16.959Z,64992.06
2023-02-02T11:18:41.846Z,64992.06
2023-02-02T11:24:22.417Z,64992.06
2023-02-02T11:29:49.651Z,64992.06
2023-02-02T11:35:20.964Z,64992.06
2023-02-02T11:40:55.184Z,64992.06
2023-02-02T11:46:24.450Z,64992.06
2023-02-02T11:51:59.062Z,64992.06
2023-02-02T11:57:26.504Z,64992.06
2023-02-02T12:02:52.736Z,64992.06
2023-02-02T12:08:17.805Z,64992.06
2023-02-02T12:13:53.445Z,64992.06
2023-02-02T12:19:48.754Z,64992.06
2023-02-02T12:25:38.997Z,64992.06
2023-02-02T12:31:13.978Z,64992.06
2023-02-02T12:36:50.253Z,64992.06
2023-02-02T12:42:34.103Z,64992.06
2023-02-02T12:48:12.567Z,64992.06
2023-02-02T12:54:34.477Z,64992.06
2023-02-02T13:00:03.627Z,64992.06
2023-02-02T13:05:54.417Z,64992.06
2023-02-02T13:11:31.537Z,64992.06
2023-02-02T13:17:01.033Z,64992.06
2023-02-02T13:22:30.953Z,64992.06
2023-02-02T13:28:00.080Z,64992.06
2023-02-02T13:33:29.784Z,64992.06
2023-02-02T13:38:57.875Z,64992.06
2023-02-02T13:44:31.142Z,64992.06
2023-02-02T13:50:04.970Z,64992.06
2023-02-02T13:55:56.800Z,64992.06
2023-02-02T14:01:25.184Z,64992.06
2023-02-02T14:06:57.372Z,64992.06
2023-02-02T14:12:32.978Z,64992.06
2023-02-02T14:17:58.687Z,64992.06
2023-02-02T14:23:51.607Z,64992.06
2023-02-02T14:29:59.095Z,64992.06
2023-02-02T14:36:01.452Z,64992.06
2023-02-02T14:42:06.515Z,64992.06
2023-02-02T14:47:51.155Z,64992.06
2023-02-02T14:53:23.920Z,64992.06
2023-02-02T14:58:56.983Z,64992.06
2023-02-02T15:04:26.779Z,64992.06
2023-02-02T15:09:56.355Z,64992.06
2023-02-02T15:15:25.188Z,64992.06
2023-02-02T15:21:21.389Z,64992.06
2023-02-02T15:26:55.282Z,64992.06
2023-02-02T15:32:28.492Z,64992.06
2023-02-02T15:38:00.579Z,64992.06
2023-02-02T15:43:29.234Z,64992.06
2023-02-02T15:49:34.873Z,64992.06
2023-02-02T15:55:02.756Z,64992.06
2023-02-02T16:00:38.536Z,64992.06
2023-02-02T16:06:05.750Z,64992.06
2023-02-02T16:11:31.404Z,64992.06
2023-02-02T16:17:12.082Z,64992.06
2023-02-02T16:22:38.334Z,64992.06
2023-02-02T16:28:04.666Z,64992.06
2023-02-02T16:33:37.537Z,64992.06
2023-02-02T16:39:03.260Z,64992.06
2023-02-02T16:44:38.112Z,64992.06
2023-02-02T16:50:31.689Z,64992.06
2023-02-02T16:55:57.979Z,64992.06
2023-02-02T17:01:23.416Z,64992.06
2023-02-02T17:06:53.133Z,64992.06
2023-02-02T17:12:35.135Z,64992.06
2023-02-02T17:18:00.612Z,64992.06
2023-02-02T17:23:29.822Z,64992.06
2023-02-02T17:28:56.983Z,64992.06
2023-02-02T17:34:21.303Z,64992.06
2023-02-02T17:39:48.509Z,64992.06
2023-02-02T17:45:17.557Z,64992.06
2023-02-02T17:50:43.460Z,64992.06
2023-02-02T17:56:10.131Z,64992.06
2023-02-02T18:01:36.997Z,64992.06
2023-02-02T18:07:03.772Z,64992.06
2023-02-02T18:12:29.105Z,64992.06
2023-02-02T18:17:56.754Z,64992.06
2023-02-02T18:23:24.272Z,64992.06
2023-02-02T18:28:51.619Z,64992.06
2023-02-02T18:34:17.488Z,64992.06
2023-02-02T18:39:42.122Z,64992.06
2023-02-02T18:45:08.932Z,64992.06
2023-02-02T18:50:33.028Z,64992.06
2023-02-02T18:55:58.401Z,64992.06
2023-02-02T19:01:25.981Z,64992.06
2023-02-02T19:07:08.790Z,64992.06
2023-02-02T19:12:33.442Z,64992.06
2023-02-02T19:17:58.950Z,64992.06
2023-02-02T19:23:25.144Z,64992.06
2023-02-02T19:28:50.810Z,64992.06
2023-02-02T19:34:21.002Z,64992.06
2023-02-02T19:39:47.154Z,64992.06
2023-02-02T19:45:21.857Z,64992.06
2023-02-02T19:50:48.798Z,64992.06
2023-02-02T19:56:24.578Z,64992.06
2023-02-02T20:01:50.780Z,64992.06
2023-02-02T20:07:16.305Z,64992.06
2023-02-02T20:12:40.358Z,64992.06
2023-02-02T20:18:06.987Z,64992.06
2023-02-02T20:23:39.699Z,64992.06
2023-02-02T20:29:17.602Z,64992.06
2023-02-02T20:34:46.306Z,64992.06
2023-02-02T20:40:24.914Z,64992.06
2023-02-02T20:45:49.892Z,64992.06
2023-02-02T20:51:15.755Z,64992.06
2023-02-02T20:56:41.233Z,64992.06
2023-02-02T21:02:06.619Z,64992.06
2023-02-02T21:07:31.527Z,64992.06
2023-02-02T21:12:56.876Z,64992.06
2023-02-02T21:18:20.976Z,64992.06
2023-02-02T21:23:47.236Z,64992.06
2023-02-02T21:29:13.687Z,64992.06
2023-02-02T21:34:38.701Z,64992.06
2023-02-02T21:40:12.586Z,64992.06
2023-02-02T21:45:39.967Z,64992.06
2023-02-02T21:51:22.487Z,64992.06
2023-02-02T21:56:47.458Z,64992.06
2023-02-02T22:02:37.878Z,64992.06
2023-02-02T22:08:18.849Z,64992.06
2023-02-02T22:13:42.216Z,64992.06
2023-02-02T22:19:33.709Z,64992.06
2023-02-02T22:25:03.457Z,64992.06
2023-02-02T22:30:30.402Z,64992.06
2023-02-02T22:35:56.108Z,64992.06
2023-02-02T22:41:20.046Z,64992.06
2023-02-02T22:46:43.756Z,64992.06
2023-02-02T22:52:09.610Z,64992.06
2023-02-02T22:57:33.537Z,64992.06
2023-02-02T23:02:58.510Z,64992.06
2023-02-02T23:08:24.405Z,64992.06
2023-02-02T23:13:48.818Z,64992.06
2023-02-02T23:19:14.731Z,64992.06
2023-02-02T23:24:40.552Z,64992.06
2023-02-02T23:30:07.696Z,64992.06
2023-02-02T23:35:32.782Z,64992.06
2023-02-02T23:41:00.356Z,64992.06
2023-02-02T23:46:26.210Z,64992.06
2023-02-02T23:51:51.086Z,64992.06
2023-02-02T23:57:17.616Z,64992.06
